ADDS METAR Data INFO
IDs: Format: Raw Decoded Include TAF

Data at: 0504 UTC 23 May 2017

KBRO 230453Z 14004KT 10SM FEW018 27/24 A2985 RMK AO2 SLP106 T02720244
KBRO 230353Z 13003KT 10SM BKN015 28/24 A2983 RMK AO2 SLP101 T02780244
KBRO 230345Z 10003KT 10SM SCT015 28/24 A2983 RMK AO2 T02780244
KBRO 230321Z 14005KT 10SM BKN015 28/24 A2983 RMK AO2 T02780244
KBRO 230253Z 10005KT 10SM FEW075 28/24 A2982 RMK AO2 SLP096 T02780244 51019
KBRO 230153Z 09006KT 10SM BKN070 29/24 A2981 RMK AO2 SLP092 T02890244
KBRO 230053Z 15009KT 10SM CLR 30/23 A2978 RMK AO2 SLP083 T03000233
KBRO 222353Z 16012KT 10SM CLR 32/23 A2976 RMK AO2 SLP077 T03220228 10367 20322 56009
KBRO 222253Z 14013KT 10SM CLR 32/23 A2977 RMK AO2 SLP079 T03220228
KBRO 222153Z 15014KT 10SM CLR 34/23 A2978 RMK AO2 SLP082 T03440233
KBRO 222053Z 14012G21KT 10SM FEW049 35/22 A2979 RMK AO2 SLP087 T03500222 58021
KBRO 221953Z 14018G26KT 10SM SCT046 36/23 A2982 RMK AO2 PK WND 14026/1948 SLP095 T03560228
KBRO 221853Z 19014G21KT 10SM FEW041 SCT065 36/23 A2984 RMK AO2 SLP102 T03560228
KBRO 221753Z 16013G18KT 10SM SCT040 SCT050 34/23 A2985 RMK AO2 SLP108 60000 T03440233 10350 20272 58020
KBRO 221653Z 17014KT 10SM SCT033 BKN044 34/23 A2988 RMK AO2 SLP117 T03390233
KBRO 221553Z 18016G23KT 10SM FEW025 32/24 A2990 RMK AO2 SLP123 T03170244
KBRO 221526Z 16019KT 10SM SCT021 SCT036 31/24 A2990 RMK AO2 T03110244
KBRO 221507Z 16016KT 10SM BKN021 BKN027 OVC050 31/24 A2991 RMK AO2 T03060244
KBRO 221453Z 17013KT 10SM SCT021 SCT031 BKN050 30/25 A2991 RMK AO2 SLP128 60000 T03000250 53006
KBRO 221353Z 16012KT 10SM FEW015 BKN060 BKN075 28/25 A2990 RMK AO2 SLP125 T02830250
KBRO 221253Z 15007KT 10SM BKN060 27/25 A2990 RMK AO2 RAB1154E11 SLP122 P0000 T02720250
KBRO 221209Z 18007KT 10SM -RA FEW015 BKN038 OVC060 27/25 A2989 RMK AO2 RAB1154 P0000 T02720250
KBRO 221153Z 19007KT 10SM BKN015 BKN026 OVC039 28/24 A2990 RMK AO2 SLP122 T02780244 10283 20272 55003
KBRO 221138Z 20009KT 10SM BKN016 BKN030 OVC039 27/24 A2990 RMK AO2 T02720244
KBRO 221122Z 20008KT 10SM BKN014 BKN023 OVC030 27/24 A2989 RMK AO2 T02720244
KBRO 221103Z 17010KT 10SM FEW013 BKN026 BKN031 27/24 A2988 RMK AO2 T02720244
KBRO 221053Z 14009KT 10SM FEW013 SCT026 27/24 A2986 RMK AO2 SLP110 T02720244
KBRO 221028Z AUTO 16011KT 10SM SCT012 OVC025 28/25 A2987 RMK AO2 T02780250
KBRO 220953Z AUTO 15009KT 10SM BKN013 BKN020 OVC024 28/25 A2988 RMK AO2 SLP117 T02780250
KBRO 220853Z AUTO 15011KT 10SM BKN012 BKN017 OVC030 28/25 A2990 RMK AO2 SLP125 T02780250 55026
KBRO 220753Z AUTO 13009KT 10SM BKN012 OVC023 28/26 A2990 RMK AO2 SLP124 T02830256
KBRO 220707Z AUTO 13015KT 10SM BKN024 28/26 A2990 RMK AO2 T02780256
KBRO 220653Z AUTO 13012KT 10SM SCT024 28/26 A2992 RMK AO2 PRESFR SLP130 T02780256
KBRO 220630Z AUTO 14007KT 10SM FEW011 BKN024 BKN035 28/26 A2996 RMK AO2 T02780256
KBRO 220600Z AUTO 16005KT 10SM FEW012 SCT021 BKN035 28/26 A2998 RMK AO2 T02830256
KBRO 220553Z AUTO 17005KT 10SM BKN021 BKN035 BKN110 28/26 A2998 RMK AO2 SLP151 T02830256 10306 20283 403440267 53023
KBRO 220517Z AUTO 14007KT 10SM SCT011 OVC022 28/26 A2996 RMK AO2 T02830256
KBRO 220453Z 12008KT 10SM OVC012 28/26 A2995 RMK AO2 SLP140 T02830256
KBRO 220353Z 08007KT 10SM BKN010 OVC019 28/26 A2993 RMK AO2 SLP135 T02830256
KBRO 220253Z 07011G17KT 10SM OVC012 28/26 A2991 RMK AO2 SLP128 T02830256 53023
KBRO 220153Z 09012KT 10SM BKN010 28/25 A2985 RMK AO2 SLP108 T02830250
KBRO 220137Z 10013KT 10SM BKN013 28/25 A2986 RMK AO2 T02830250
KBRO 220053Z 09012KT 10SM BKN016 BKN023 29/25 A2985 RMK AO2 SLP106 T02890250
KBRO 220034Z 09011KT 10SM BKN017 29/24 A2985 RMK AO2 T02890244
KBRO 212353Z 10012KT 10SM SCT023 31/24 A2985 RMK AO2 SLP105 T03060239 10344 20300 56008
KBRO 212300Z 11011KT 10SM FEW027 32/23 A2985
KBRO 212253Z 11011KT 10SM CLR 32/23 A2985 RMK AO2 SLP108 T03170233
KBRO 212153Z 11011G18KT 10SM FEW032 32/23 A2985 RMK AO2 SLP107 T03220228
KBRO 212053Z 09012KT 10SM BKN036 33/23 A2987 RMK AO2 SLP113 T03330233 58019
KBRO 211953Z 08014G22KT 10SM FEW036 33/23 A2989 RMK AO2 SLP121 T03330233
KBRO 211853Z 12012KT 10SM SCT037 SCT047 34/23 A2991 RMK AO2 SLP128 T03390233
KBRO 211753Z 13013G18KT 10SM SCT041 BKN050 33/23 A2993 RMK AO2 SLP133 T03280228 10339 20267 58008


Page loaded:  05:04 UTC  |   10:04 PM Pacific  |   11:04 PM Mountain  |   12:04 AM Central  |   01:04 AM Eastern

 

ADVISORIES

FORECASTS

FORECASTS

OBSERVATIONS

USER TOOLS

ABOUT US